Ana Sayfa
METAR-TAF:

METAR-TAF

Havaalanları :

Cengiz Topel Havalimanı

İzmit, Türkiye

Enlem: 40-44N, Boylam: 030-05E, yükseklik: 50 m

Güncel hava durumu gözlemi

Rapor saat 20:50 UTC de 41 dakika önce yapıldı.
Rüzgar değişken yönden 1 kt
Sıcaklık 9°C
Nem 93%
Basınç 1025 hPa
Görüş mesafesi 10 km veya daha fazla
3500 ft yükseklikte parçalı bulutlu
7000 ft yükseklikte parçalı çok bulutlu

METAR: LTBQ 172050Z VRB01KT 9999 SCT035 BKN070 09/08 Q1025 NOSIG

Saat: 00:31 (21:31 UTC)

Tahmin

Rapor saat 19:40 UTC de 1 saat ve 51 dakika önce yapıldı.
Ayın 17'si saat 21 UTC'den ayın 18'si saat 06 UTC'ye kadar geçerli Tahmin
Rüzgar değişken yönden 2 kt
Görüş mesafesi: 8000 m
3000 ft yükseklikte parçalı bulutlu
8000 ft yükseklikte parçalı çok bulutlu
Geçici
ayın 18'si saat 01 UTC'den ayın 18'si saat 05 UTC'ye kadar
Görüş mesafesi: 4000 m
Pus

TAF: LTBQ 171940Z 1721/1806 VRB02KT 8000 SCT030 BKN080 TEMPO 1801/1805 4000 BR

4.000'den fazla havaalanı için hava durumu gözlemleri ve tahminleri (METAR ve TAF raporları).

Kullanılabilir istasyonlar harita üzerinde sarı ve kırmızı noktalarla gösterilir.

İstasyonun adını görmek için fareyi noktanın üzerinde gezdirin.

Sonrasında hava gözlem ve tahminlerini görmek için tıklayın.

Haritayı değiştirmek için: yaklaştırmak için siyah artı işaretli yeşil düğmeye ve uzaklaştırmak için de eksi işaretli düğmeye hızla tıklayın; bitişik haritalar için yeşil okları kullanın.


METAR-TAF: